createdAt,value
2023-01-12T00:02:19.947Z,99896.13
2023-01-12T00:07:23.677Z,99901.08
2023-01-12T00:12:26.389Z,99904.36
2023-01-12T00:17:29.045Z,99907.91
2023-01-12T00:22:31.880Z,99903.52
2023-01-12T00:27:34.562Z,99903.81
2023-01-12T00:32:37.278Z,99900.15
2023-01-12T00:37:39.978Z,99901.79
2023-01-12T00:43:01.398Z,99898.98
2023-01-12T00:48:04.186Z,99905.90
2023-01-12T00:53:06.831Z,99907.05
2023-01-12T00:58:09.472Z,99915.45
2023-01-12T01:03:12.156Z,99918.94
2023-01-12T01:08:15.932Z,99919.05
2023-01-12T01:13:18.625Z,99915.04
2023-01-12T01:18:21.852Z,99912.30
2023-01-12T01:23:26.783Z,99914.31
2023-01-12T01:28:29.601Z,99924.52
2023-01-12T01:33:32.987Z,99929.80
2023-01-12T01:38:37.256Z,99930.45
2023-01-12T01:43:50.593Z,99930.89
2023-01-12T01:48:53.989Z,99925.05
2023-01-12T01:53:57.017Z,99924.64
2023-01-12T01:59:13.921Z,99924.10
2023-01-12T02:04:17.185Z,99929.82
2023-01-12T02:09:24.106Z,99930.80
2023-01-12T02:14:45.596Z,99935.68
2023-01-12T02:20:36.970Z,99942.77
2023-01-12T02:26:12.711Z,99936.95
2023-01-12T02:31:34.373Z,99939.40
2023-01-12T02:37:00.618Z,99937.62
2023-01-12T02:42:31.366Z,99931.09
2023-01-12T02:48:03.355Z,99935.78
2023-01-12T02:53:18.028Z,99942.71
2023-01-12T02:58:24.404Z,99960.88
2023-01-12T03:03:27.324Z,99963.39
2023-01-12T03:08:31.662Z,99964.30
2023-01-12T03:13:37.202Z,99962.81
2023-01-12T03:18:51.205Z,99969.20
2023-01-12T03:24:03.670Z,99968.03
2023-01-12T03:29:27.934Z,99963.05
2023-01-12T03:34:33.289Z,99960.41
2023-01-12T03:40:03.840Z,99966.82
2023-01-12T03:45:40.103Z,99956.23
2023-01-12T03:50:48.480Z,99952.40
2023-01-12T03:55:57.295Z,99953.23
2023-01-12T04:01:00.088Z,99951.86
2023-01-12T04:06:03.103Z,99945.23
2023-01-12T04:11:28.119Z,99941.14
2023-01-12T04:16:30.803Z,99943.69
2023-01-12T04:21:52.209Z,99953.80
2023-01-12T04:26:55.132Z,99958.70
2023-01-12T04:31:57.917Z,99959.27
2023-01-12T04:37:02.178Z,99962.66
2023-01-12T04:42:05.205Z,99965.81
2023-01-12T04:47:07.958Z,99961.09
2023-01-12T04:52:11.003Z,99952.79
2023-01-12T04:57:13.668Z,99961.48
2023-01-12T05:02:16.432Z,99970.84
2023-01-12T05:07:19.144Z,99967.58
2023-01-12T05:12:21.802Z,99967.49
2023-01-12T05:17:24.556Z,99964.13
2023-01-12T05:22:27.307Z,99971.91
2023-01-12T05:27:29.975Z,99967.30
2023-01-12T05:32:38.233Z,99968.63
2023-01-12T05:37:40.933Z,99972.58
2023-01-12T05:43:02.460Z,99977.04
2023-01-12T05:48:05.339Z,99975.65
2023-01-12T05:53:09.752Z,99980.90
2023-01-12T05:58:12.499Z,99989.48
2023-01-12T06:03:15.436Z,99995.11
2023-01-12T06:08:18.124Z,99999.59
2023-01-12T06:13:39.572Z,99999.96
2023-01-12T06:18:42.264Z,99998.48
2023-01-12T06:23:44.946Z,99999.98
2023-01-12T06:28:47.659Z,100006.55
2023-01-12T06:33:50.443Z,100018.09
2023-01-12T06:38:53.586Z,100022.29
2023-01-12T06:43:57.531Z,100020.35
2023-01-12T06:49:00.290Z,100018.11
2023-01-12T06:54:03.098Z,100015.27
2023-01-12T06:59:05.901Z,100009.69
2023-01-12T07:04:08.782Z,99999.42
2023-01-12T07:09:12.331Z,100002.42
2023-01-12T07:14:15.323Z,100000.44
2023-01-12T07:19:18.168Z,99998.39
2023-01-12T07:24:21.099Z,100006.95
2023-01-12T07:29:27.437Z,100011.18
2023-01-12T07:34:30.279Z,100012.46
2023-01-12T07:39:33.026Z,100015.32
2023-01-12T07:44:35.868Z,100010.16
2023-01-12T07:49:38.618Z,100009.46
2023-01-12T07:54:41.489Z,99995.06
2023-01-12T07:59:44.410Z,99992.45
2023-01-12T08:04:47.295Z,99985.85
2023-01-12T08:09:50.045Z,99989.77
2023-01-12T08:14:53.265Z,99983.36
2023-01-12T08:20:02.211Z,99978.23
2023-01-12T08:25:10.729Z,99981.32
2023-01-12T08:30:17.229Z,99987.20
2023-01-12T08:35:22.564Z,99986.66
2023-01-12T08:40:45.351Z,99982.27
2023-01-12T08:45:48.361Z,99974.55
2023-01-12T08:50:51.131Z,99972.13
2023-01-12T08:55:54.145Z,99976.81
2023-01-12T09:00:57.114Z,99977.07
2023-01-12T09:06:00.263Z,99982.77
2023-01-12T09:11:04.537Z,99983.71
2023-01-12T09:16:13.814Z,99984.42
2023-01-12T09:21:19.971Z,99981.92
2023-01-12T09:26:31.567Z,99979.10
2023-01-12T09:31:36.533Z,99979.91
2023-01-12T09:36:40.893Z,99970.69
2023-01-12T09:42:09.094Z,99977.20
2023-01-12T09:47:35.451Z,99969.51
2023-01-12T09:52:41.020Z,99973.23
2023-01-12T09:57:50.564Z,99968.23
2023-01-12T10:03:11.296Z,99960.98
2023-01-12T10:08:32.616Z,99953.34
2023-01-12T10:14:27.900Z,99953.08
2023-01-12T10:19:52.730Z,99940.30
2023-01-12T10:24:55.738Z,99938.25
2023-01-12T10:29:59.038Z,99931.90
2023-01-12T10:35:12.333Z,99928.41
2023-01-12T10:40:33.369Z,99925.21
2023-01-12T10:46:05.608Z,99921.98
2023-01-12T10:52:41.045Z,99924.32
2023-01-12T10:57:45.114Z,99924.96
2023-01-12T11:02:48.133Z,99910.27
2023-01-12T11:07:51.235Z,99892.91
2023-01-12T11:12:59.114Z,99885.11
2023-01-12T11:18:28.171Z,99878.70
2023-01-12T11:23:55.703Z,99866.08
2023-01-12T11:29:21.778Z,99863.67
2023-01-12T11:34:33.011Z,99861.93
2023-01-12T11:39:35.940Z,99855.52
2023-01-12T11:45:05.412Z,99853.67
2023-01-12T11:50:21.048Z,99859.23
2023-01-12T11:55:59.449Z,99855.23
2023-01-12T12:01:21.025Z,99842.65
2023-01-12T12:06:26.417Z,99844.42
2023-01-12T12:11:57.913Z,99838.45
2023-01-12T12:17:09.528Z,99829.43
2023-01-12T12:22:23.364Z,99826.88
2023-01-12T12:28:07.579Z,99814.27
2023-01-12T12:33:42.731Z,99806.83
2023-01-12T12:39:24.753Z,99801.84
2023-01-12T12:45:11.393Z,99795.21
2023-01-12T12:50:37.626Z,99793.23
2023-01-12T12:55:41.635Z,99793.18
2023-01-12T13:00:46.841Z,99789.34
2023-01-12T13:06:29.911Z,99783.64
2023-01-12T13:11:47.724Z,99773.11
2023-01-12T13:16:53.707Z,99770.48
2023-01-12T13:21:59.856Z,99767.66
2023-01-12T13:27:02.536Z,99762.80
2023-01-12T13:32:35.675Z,99759.24
2023-01-12T13:37:48.691Z,99762.17
2023-01-12T13:43:17.426Z,99754.15
2023-01-12T13:48:21.452Z,99744.95
2023-01-12T13:53:29.909Z,99738.23
2023-01-12T13:58:42.821Z,99740.02
2023-01-12T14:03:57.380Z,99743.12
2023-01-12T14:09:14.873Z,99730.60
2023-01-12T14:15:10.203Z,99724.13
2023-01-12T14:20:17.095Z,99710.92
2023-01-12T14:25:25.980Z,99704.80
2023-01-12T14:30:29.558Z,99705.06
2023-01-12T14:35:32.784Z,99704.23
2023-01-12T14:40:35.524Z,99706.31
2023-01-12T14:46:25.241Z,99708.38
2023-01-12T14:51:38.512Z,99714.90
2023-01-12T14:56:44.137Z,99723.64
2023-01-12T15:01:47.090Z,99715.23
2023-01-12T15:07:02.045Z,99712.98
2023-01-12T15:12:29.609Z,99712.21
2023-01-12T15:17:50.870Z,99711.34
2023-01-12T15:23:12.104Z,99706.66
2023-01-12T15:28:14.913Z,99703.85
2023-01-12T15:33:18.056Z,99699.34
2023-01-12T15:38:20.797Z,99704.63
2023-01-12T15:43:23.530Z,99693.94
2023-01-12T15:48:26.236Z,99680.59
2023-01-12T15:53:28.951Z,99679.25
2023-01-12T15:58:31.601Z,99665.25
2023-01-12T16:04:00.561Z,99675.30
2023-01-12T16:08:57.797Z,99673.84
2023-01-12T16:14:00.614Z,99664.27
2023-01-12T16:19:06.036Z,99658.27
2023-01-12T16:24:09.564Z,99646.23
2023-01-12T16:29:12.305Z,99639.44
2023-01-12T16:34:18.316Z,99641.13
2023-01-12T16:39:21.499Z,99634.91
2023-01-12T16:44:24.180Z,99637.83
2023-01-12T16:49:27.058Z,99638.77
2023-01-12T16:54:29.988Z,99625.48
2023-01-12T16:59:32.779Z,99628.94
2023-01-12T17:04:37.669Z,99624.85
2023-01-12T17:09:41.070Z,99619.29
2023-01-12T17:14:44.779Z,99622.75
2023-01-12T17:19:47.885Z,99618.35
2023-01-12T17:24:51.292Z,99609.63
2023-01-12T17:29:53.990Z,99611.73
2023-01-12T17:34:56.885Z,99606.67
2023-01-12T17:39:59.682Z,99602.52
2023-01-12T17:45:03.962Z,99602.06
2023-01-12T17:50:07.656Z,99605.85
2023-01-12T17:55:10.442Z,99606.69
2023-01-12T18:00:16.348Z,99600.42
2023-01-12T18:05:19.117Z,99599.02
2023-01-12T18:10:21.918Z,99596.30
2023-01-12T18:15:24.598Z,99596.09
2023-01-12T18:20:27.822Z,99600.19
2023-01-12T18:25:30.511Z,99603.18
2023-01-12T18:30:33.427Z,99601.67
2023-01-12T18:35:36.641Z,99580.73
2023-01-12T18:40:39.325Z,99577.30
2023-01-12T18:45:42.040Z,99576.11
2023-01-12T18:51:03.575Z,99581.79
2023-01-12T18:56:06.968Z,99586.65
2023-01-12T19:01:12.380Z,99577.77
2023-01-12T19:06:24.269Z,99584.85
2023-01-12T19:11:26.968Z,99583.82
2023-01-12T19:16:48.151Z,99586.23
2023-01-12T19:22:09.550Z,99583.33
2023-01-12T19:27:32.317Z,99585.36
2023-01-12T19:32:35.109Z,99579.67
2023-01-12T19:37:38.223Z,99572.98
2023-01-12T19:42:59.807Z,99568.57
2023-01-12T19:48:03.689Z,99567.40
2023-01-12T19:53:07.670Z,99568.47
2023-01-12T19:58:11.142Z,99564.14
2023-01-12T20:03:16.206Z,99570.02
2023-01-12T20:08:21.335Z,99567.17
2023-01-12T20:13:25.042Z,99561.79
2023-01-12T20:18:27.712Z,99564.63
2023-01-12T20:23:30.459Z,99567.96
2023-01-12T20:28:33.358Z,99561.05
2023-01-12T20:33:36.287Z,99562.46
2023-01-12T20:38:40.929Z,99567.35
2023-01-12T20:43:43.698Z,99556.83
2023-01-12T20:48:46.402Z,99557.08
2023-01-12T20:53:49.163Z,99557.73
2023-01-12T20:58:51.954Z,99556.30
2023-01-12T21:03:55.213Z,99560.44
2023-01-12T21:08:58.028Z,99562.18
2023-01-12T21:14:00.829Z,99558.92
2023-01-12T21:19:03.835Z,99562.70
2023-01-12T21:24:06.969Z,99557.52
2023-01-12T21:29:09.625Z,99555.98
2023-01-12T21:34:12.387Z,99562.38
2023-01-12T21:39:15.197Z,99557.95
2023-01-12T21:44:18.045Z,99557.34
2023-01-12T21:49:20.701Z,99554.80
2023-01-12T21:54:23.451Z,99549.16
2023-01-12T21:59:26.111Z,99549.61
2023-01-12T22:04:28.842Z,99547.52
2023-01-12T22:09:31.762Z,99543.27
2023-01-12T22:14:34.545Z,99542.06
2023-01-12T22:19:39.405Z,99545.70
2023-01-12T22:24:42.406Z,99538.36
2023-01-12T22:29:45.106Z,99538.73
2023-01-12T22:34:47.795Z,99540.18
2023-01-12T22:39:50.490Z,99540.73
2023-01-12T22:44:56.577Z,99538.86
2023-01-12T22:49:59.216Z,99544.89
2023-01-12T22:55:02.085Z,99540.70
2023-01-12T23:00:05.373Z,99535.86
2023-01-12T23:05:08.420Z,99529.96
2023-01-12T23:10:11.635Z,99532.30
2023-01-12T23:15:14.649Z,99531.16
2023-01-12T23:20:17.628Z,99531.60
2023-01-12T23:25:20.557Z,99538.73
2023-01-12T23:30:24.085Z,99534.05
2023-01-12T23:35:27.772Z,99535.26
2023-01-12T23:40:34.278Z,99546.84
2023-01-12T23:45:37.589Z,99548.05
2023-01-12T23:50:40.755Z,99538.58
2023-01-12T23:55:44.021Z,99540.09
